Time;durP1;ratioP1;P1;durP2;ratioP2;P2;SDS_P1;SDS_P2;PMS_P1;PMS_P2;Temp;Humidity;BMP_temperature;BMP_pressure;BME280_temperature;BME280_humidity;BME280_pressure;Samples;Min_cycle;Max_cycle;Signal;HPM_P1;HPM_P2
2023/05/26 00:01:07;;;;;;;17.52;10.80;;;13.40;78.40;;;;;;5011814;28;20030;-61
2023/05/26 00:03:34;;;;;;;15.98;11.25;;;13.40;81.40;;;;;;5011829;28;20041;-61
2023/05/26 00:06:00;;;;;;;19.67;10.73;;;13.40;83.90;;;;;;5011482;28;20031;-61
2023/05/26 00:08:26;;;;;;;20.17;10.35;;;13.40;81.80;;;;;;5010370;28;20033;-61
2023/05/26 00:10:52;;;;;;;17.95;10.55;;;13.40;82.10;;;;;;5011493;28;20386;-62
2023/05/26 00:13:18;;;;;;;17.73;10.35;;;13.40;84.50;;;;;;5011728;28;20032;-62
2023/05/26 00:15:43;;;;;;;17.02;11.23;;;13.50;83.40;;;;;;5011385;28;20022;-61
2023/05/26 00:18:09;;;;;;;23.17;10.43;;;13.50;82.20;;;;;;5011601;28;20033;-61
2023/05/26 00:20:35;;;;;;;12.77;11.25;;;13.50;81.00;;;;;;5011871;28;20049;-61
2023/05/26 00:23:01;;;;;;;12.95;9.88;;;13.50;80.40;;;;;;5011590;28;20029;-62
2023/05/26 00:25:27;;;;;;;14.98;10.70;;;13.40;81.30;;;;;;5011933;28;20034;-61
2023/05/26 00:27:53;;;;;;;13.18;10.07;;;13.30;83.50;;;;;;5011297;28;20592;-61
2023/05/26 00:30:19;;;;;;;14.73;10.95;;;13.40;84.80;;;;;;5010156;28;20021;-62
2023/05/26 00:32:44;;;;;;;15.55;10.95;;;13.30;84.40;;;;;;5011665;28;20458;-61
2023/05/26 00:35:10;;;;;;;26.95;10.07;;;13.30;85.10;;;;;;5011655;28;20032;-61
2023/05/26 00:37:36;;;;;;;14.52;10.35;;;13.30;83.30;;;;;;5011391;28;20133;-61
2023/05/26 00:40:02;;;;;;;17.73;10.38;;;13.30;83.00;;;;;;5011217;28;20468;-61
2023/05/26 00:42:27;;;;;;;15.05;10.70;;;13.20;84.60;;;;;;5011793;28;20018;-61
2023/05/26 00:44:53;;;;;;;15.43;10.02;;;13.20;81.40;;;;;;5011476;28;20022;-61
2023/05/26 00:47:19;;;;;;;18.13;10.85;;;13.20;85.70;;;;;;5011262;28;20483;-61
2023/05/26 00:49:45;;;;;;;15.90;10.18;;;13.20;88.00;;;;;;5011135;28;20084;-61
2023/05/26 00:52:12;;;;;;;18.13;11.80;;;13.20;84.00;;;;;;5013254;28;20045;-61
2023/05/26 00:54:39;;;;;;;19.63;11.70;;;13.20;88.70;;;;;;5014997;28;20126;-62
2023/05/26 00:57:06;;;;;;;19.75;11.77;;;13.10;88.40;;;;;;5014794;28;20072;-62
2023/05/26 00:59:32;;;;;;;16.25;10.90;;;13.20;88.90;;;;;;5014572;28;20026;-61
2023/05/26 01:01:59;;;;;;;13.82;10.82;;;13.10;88.70;;;;;;5014567;28;20033;-61
2023/05/26 01:04:25;;;;;;;12.20;9.95;;;13.10;88.90;;;;;;5014745;28;20478;-61
2023/05/26 01:06:52;;;;;;;16.60;10.30;;;13.10;88.70;;;;;;5014777;28;20045;-61
2023/05/26 01:09:18;;;;;;;11.90;10.48;;;13.10;88.60;;;;;;5014647;28;20025;-62
2023/05/26 01:12:01;;;;;;;17.05;9.05;;;13.10;89.40;;;;;;5013024;28;20431;-61
2023/05/26 01:14:49;;;;;;;16.63;10.85;;;13.00;89.80;;;;;;5013156;28;20489;-61
2023/05/26 01:17:25;;;;;;;12.98;9.60;;;13.10;90.40;;;;;;5014410;28;20068;-62
2023/05/26 01:20:08;;;;;;;15.32;9.70;;;13.10;90.40;;;;;;5014318;28;20359;-61
2023/05/26 01:22:56;;;;;;;19.60;12.35;;;13.10;92.40;;;;;;5014823;28;20033;-61
2023/05/26 01:26:18;;;;;;;13.25;10.27;;;13.20;91.90;;;;;;5014297;28;20018;-61
2023/05/26 01:28:46;;;;;;;13.07;10.80;;;13.20;91.60;;;;;;4972201;28;20102;-61
2023/05/26 01:31:12;;;;;;;12.25;9.73;;;13.20;90.70;;;;;;4972742;28;20643;-61
2023/05/26 01:33:38;;;;;;;18.77;10.48;;;13.30;91.70;;;;;;4992283;28;20038;-61
2023/05/26 01:36:04;;;;;;;15.50;10.02;;;13.30;91.40;;;;;;5014001;28;20030;-61
2023/05/26 01:38:30;;;;;;;15.52;10.73;;;13.30;91.20;;;;;;5014035;28;20053;-61
2023/05/26 01:41:09;;;;;;;21.42;10.07;;;13.30;91.50;;;;;;5013969;28;20450;-61
2023/05/26 01:43:47;;;;;;;14.32;9.57;;;13.40;90.00;;;;;;5014119;28;20026;-61
2023/05/26 01:46:29;;;;;;;19.40;10.27;;;13.40;88.40;;;;;;5014019;28;20369;-61
2023/05/26 01:48:58;;;;;;;13.05;9.50;;;13.40;86.40;;;;;;5013749;28;20104;-61
2023/05/26 01:51:29;;;;;;;11.25;9.93;;;13.40;83.50;;;;;;5013856;28;20026;-62
2023/05/26 01:53:57;;;;;;;10.45;9.00;;;13.30;84.90;;;;;;5012415;28;20045;-62
2023/05/26 01:56:25;;;;;;;14.55;9.85;;;13.40;87.10;;;;;;5013952;28;20026;-61
2023/05/26 01:58:52;;;;;;;14.05;9.80;;;13.40;83.60;;;;;;5013484;28;20381;-62
2023/05/26 02:01:18;;;;;;;17.45;10.10;;;13.50;85.20;;;;;;5013750;28;20025;-61
2023/05/26 02:03:44;;;;;;;13.32;8.95;;;13.50;83.30;;;;;;5012288;28;20650;-61
2023/05/26 02:06:10;;;;;;;14.35;9.25;;;13.50;79.40;;;;;;5013650;28;20120;-61
2023/05/26 02:08:38;;;;;;;14.68;9.00;;;13.60;79.20;;;;;;5013433;28;20127;-61
2023/05/26 02:11:04;;;;;;;14.88;9.43;;;13.70;76.30;;;;;;5013440;28;20020;-61
2023/05/26 02:13:30;;;;;;;13.63;8.70;;;13.70;70.70;;;;;;5013233;28;20108;-61
2023/05/26 02:15:56;;;;;;;11.73;8.23;;;13.70;67.10;;;;;;5012851;28;20026;-61
2023/05/26 02:18:22;;;;;;;15.98;8.88;;;13.70;66.30;;;;;;5012776;28;20022;-61
2023/05/26 02:20:48;;;;;;;16.23;9.35;;;13.80;63.90;;;;;;5012597;28;20112;-61
2023/05/26 02:23:13;;;;;;;12.20;7.65;;;13.80;65.20;;;;;;5013035;28;20116;-61
2023/05/26 02:25:39;;;;;;;15.93;8.40;;;13.80;61.30;;;;;;5013010;28;20042;-61
2023/05/26 02:28:05;;;;;;;11.77;7.85;;;13.90;46.50;;;;;;5012856;28;20037;-61
2023/05/26 02:30:30;;;;;;;11.90;8.38;;;13.90;36.50;;;;;;5013129;28;20018;-61
2023/05/26 02:32:56;;;;;;;18.50;8.55;;;13.90;24.50;;;;;;5012966;28;20429;-61
2023/05/26 02:35:22;;;;;;;12.93;9.45;;;14.00;22.40;;;;;;5013038;28;20022;-61
2023/05/26 02:37:47;;;;;;;17.63;8.85;;;14.10;23.90;;;;;;5012583;28;20056;-62
2023/05/26 02:40:13;;;;;;;15.85;9.90;;;14.00;23.60;;;;;;5012933;28;20508;-61
2023/05/26 02:42:39;;;;;;;13.80;9.60;;;14.00;9.20;;;;;;5012874;28;20091;-61
2023/05/26 02:45:05;;;;;;;12.38;9.07;;;14.00;4.10;;;;;;5012836;28;20108;-61
2023/05/26 02:47:31;;;;;;;21.30;9.98;;;14.00;1.00;;;;;;5012692;28;20026;-61
2023/05/26 02:49:57;;;;;;;12.90;9.50;;;14.10;1.00;;;;;;5012589;28;20076;-61
2023/05/26 02:52:22;;;;;;;15.20;8.98;;;14.10;1.00;;;;;;5012775;28;20033;-61
2023/05/26 02:54:48;;;;;;;19.38;8.82;;;14.10;1.00;;;;;;5012633;28;20061;-61
2023/05/26 02:57:14;;;;;;;13.48;8.80;;;14.20;1.00;;;;;;5012739;28;20018;-61
2023/05/26 02:59:40;;;;;;;15.63;8.10;;;14.30;1.00;;;;;;5012520;28;20026;-61
2023/05/26 03:02:05;;;;;;;9.98;8.07;;;14.30;1.00;;;;;;5012494;28;20030;-61
2023/05/26 03:04:31;;;;;;;13.85;8.70;;;14.40;1.00;;;;;;5012424;28;20030;-61
2023/05/26 03:06:57;;;;;;;12.18;8.63;;;14.40;1.00;;;;;;5012364;28;20370;-58
2023/05/26 03:09:22;;;;;;;16.00;9.40;;;14.40;1.00;;;;;;5012396;28;20017;-61
2023/05/26 03:11:48;;;;;;;15.55;9.40;;;14.50;1.00;;;;;;5010819;28;20026;-61
2023/05/26 03:14:14;;;;;;;16.92;8.40;;;14.40;1.00;;;;;;5010672;28;20029;-61
2023/05/26 03:16:40;;;;;;;16.42;9.23;;;14.40;1.00;;;;;;5012386;28;20026;-61
2023/05/26 03:19:05;;;;;;;14.85;8.50;;;14.50;1.00;;;;;;5012169;28;20377;-61
2023/05/26 03:21:32;;;;;;;14.68;9.57;;;14.50;1.00;;;;;;5012354;28;20022;-61
2023/05/26 03:23:57;;;;;;;13.60;9.43;;;14.50;1.00;;;;;;5012150;28;20022;-61
2023/05/26 03:26:23;;;;;;;16.50;9.95;;;14.40;1.00;;;;;;5012128;28;20030;-61
2023/05/26 03:28:48;;;;;;;13.52;8.88;;;14.40;1.00;;;;;;5011886;28;20058;-61
2023/05/26 03:31:15;;;;;;;13.32;8.32;;;14.40;1.00;;;;;;5012142;28;20026;-61
2023/05/26 03:33:41;;;;;;;16.58;10.55;;;14.40;1.00;;;;;;5012405;28;20068;-59
2023/05/26 03:36:08;;;;;;;14.18;10.32;;;14.50;1.00;;;;;;5012110;28;20050;-61
2023/05/26 03:38:34;;;;;;;18.05;9.68;;;14.50;1.00;;;;;;5011699;28;20042;-61
2023/05/26 03:41:00;;;;;;;18.77;8.73;;;14.50;1.00;;;;;;5011929;28;20105;-60
2023/05/26 03:43:26;;;;;;;14.05;8.32;;;14.50;1.00;;;;;;5011768;28;20030;-60
2023/05/26 03:45:52;;;;;;;11.95;8.88;;;14.50;1.00;;;;;;5011755;28;20025;-61
2023/05/26 03:48:18;;;;;;;19.05;9.82;;;14.50;1.00;;;;;;5011661;28;20014;-61
2023/05/26 03:50:46;;;;;;;21.00;9.80;;;14.50;1.00;;;;;;5011867;28;20436;-61
2023/05/26 03:53:12;;;;;;;16.60;9.18;;;14.50;1.00;;;;;;5011854;28;20088;-61
2023/05/26 03:55:37;;;;;;;19.38;9.82;;;14.50;1.00;;;;;;5011866;28;20029;-61
2023/05/26 03:58:04;;;;;;;12.38;9.13;;;14.50;1.00;;;;;;5011823;28;20026;-61
2023/05/26 04:00:32;;;;;;;16.00;8.60;;;14.50;1.00;;;;;;5011851;28;20057;-61
2023/05/26 04:02:58;;;;;;;13.63;8.75;;;14.50;1.00;;;;;;5011534;28;20119;-61
2023/05/26 04:05:24;;;;;;;12.82;8.70;;;14.50;1.00;;;;;;5011871;28;20026;-61
2023/05/26 04:07:50;;;;;;;18.08;8.65;;;14.60;1.00;;;;;;5010117;28;20435;-61
2023/05/26 04:10:16;;;;;;;10.95;8.30;;;14.60;1.00;;;;;;5011779;28;20025;-61
2023/05/26 04:12:42;;;;;;;20.95;9.23;;;14.70;1.00;;;;;;5011588;28;20033;-61
2023/05/26 04:15:09;;;;;;;13.57;8.05;;;14.70;1.00;;;;;;5011585;28;20026;-61
2023/05/26 04:17:35;;;;;;;14.65;9.25;;;14.80;1.00;;;;;;5011872;28;20033;-61
2023/05/26 04:20:10;;;;;;;17.40;8.27;;;14.90;1.00;;;;;;5011354;28;20080;-61
2023/05/26 04:22:36;;;;;;;20.33;9.50;;;14.90;1.00;;;;;;5011538;28;20057;-61
2023/05/26 04:25:03;;;;;;;13.65;9.10;;;14.90;1.00;;;;;;5011549;28;20117;-61
2023/05/26 04:27:29;;;;;;;13.07;10.02;;;15.00;1.00;;;;;;5014049;28;20026;-61
2023/05/26 04:29:58;;;;;;;14.60;8.80;;;15.00;1.00;;;;;;5015325;28;20045;-61
2023/05/26 04:32:24;;;;;;;16.48;8.95;;;15.00;1.00;;;;;;5015330;28;20034;-61
2023/05/26 04:34:50;;;;;;;18.13;9.60;;;15.00;1.00;;;;;;5015144;28;20022;-61
2023/05/26 04:37:16;;;;;;;21.13;10.00;;;15.00;1.00;;;;;;5015044;28;20038;-61
2023/05/26 04:39:42;;;;;;;15.45;9.10;;;15.00;1.00;;;;;;5015114;28;20033;-61
2023/05/26 04:42:08;;;;;;;20.33;9.30;;;15.00;1.00;;;;;;5013860;28;20389;-61
2023/05/26 04:44:33;;;;;;;17.83;9.48;;;15.00;1.00;;;;;;5014879;28;20018;-61
2023/05/26 04:47:02;;;;;;;19.30;9.93;;;15.00;1.00;;;;;;5014877;28;20022;-61
2023/05/26 04:49:29;;;;;;;20.48;10.40;;;15.00;1.00;;;;;;5014786;28;20022;-61
2023/05/26 04:51:57;;;;;;;13.32;9.38;;;15.00;1.00;;;;;;5014951;28;20029;-61
2023/05/26 04:54:23;;;;;;;15.63;9.60;;;15.00;1.00;;;;;;5014904;28;20062;-61
2023/05/26 04:56:50;;;;;;;13.60;8.98;;;15.00;1.00;;;;;;5014632;28;20026;-61
2023/05/26 04:59:17;;;;;;;15.82;9.85;;;15.10;1.00;;;;;;5014872;28;20021;-61
2023/05/26 05:01:44;;;;;;;18.63;8.93;;;15.30;1.00;;;;;;5014734;28;20037;-61
2023/05/26 05:04:09;;;;;;;19.98;9.32;;;15.20;1.00;;;;;;5014400;28;20038;-60
2023/05/26 05:06:35;;;;;;;15.20;9.02;;;15.20;1.00;;;;;;5010845;28;20084;-59
2023/05/26 05:09:02;;;;;;;20.45;8.15;;;15.40;1.00;;;;;;5013542;28;20030;-61
2023/05/26 05:11:27;;;;;;;15.13;9.13;;;15.50;1.00;;;;;;5012574;28;20029;-61
2023/05/26 05:13:53;;;;;;;21.00;9.77;;;15.60;99.90;;;;;;5013815;28;20497;-61
2023/05/26 05:16:19;;;;;;;16.42;9.73;;;15.70;99.90;;;;;;5014338;28;20045;-61
2023/05/26 05:18:44;;;;;;;17.17;9.95;;;15.80;1.00;;;;;;5014157;28;20033;-61
2023/05/26 05:21:10;;;;;;;23.90;11.93;;;15.70;99.90;;;;;;5014423;28;20477;-61
2023/05/26 05:23:35;;;;;;;20.00;10.30;;;15.80;99.90;;;;;;5014090;28;20034;-61
2023/05/26 05:26:01;;;;;;;15.23;9.18;;;15.90;99.90;;;;;;5014018;28;20040;-61
2023/05/26 05:28:27;;;;;;;17.17;9.88;;;16.10;99.90;;;;;;5014057;28;20033;-61
2023/05/26 05:30:53;;;;;;;13.77;9.15;;;16.10;99.90;;;;;;5014385;28;20339;-61
2023/05/26 05:33:18;;;;;;;15.48;9.57;;;16.10;99.90;;;;;;5014217;28;20026;-61
2023/05/26 05:35:47;;;;;;;19.20;11.13;;;16.20;99.90;;;;;;5013986;28;20018;-61
2023/05/26 05:38:12;;;;;;;19.65;10.27;;;16.30;99.90;;;;;;5013735;28;20056;-61
2023/05/26 05:40:38;;;;;;;14.75;10.27;;;16.30;99.90;;;;;;5013845;28;20030;-61
2023/05/26 05:43:04;;;;;;;21.02;9.65;;;16.30;99.90;;;;;;5013871;28;20104;-61
2023/05/26 05:45:30;;;;;;;19.63;9.95;;;16.40;99.90;;;;;;5013889;28;20026;-61
2023/05/26 05:47:56;;;;;;;25.67;9.60;;;16.40;99.90;;;;;;5013573;28;20041;-61
2023/05/26 05:50:22;;;;;;;18.90;10.50;;;16.50;99.90;;;;;;5013321;28;20354;-61
2023/05/26 05:52:48;;;;;;;20.95;9.63;;;16.40;99.90;;;;;;5010435;28;20084;-61
2023/05/26 05:55:13;;;;;;;17.67;10.40;;;16.40;91.60;;;;;;5010581;28;20435;-60
2023/05/26 05:57:39;;;;;;;23.88;10.45;;;16.50;57.50;;;;;;5013092;28;20032;-61
2023/05/26 06:00:07;;;;;;;15.98;10.38;;;16.50;3.70;;;;;;5013332;28;20037;-61
2023/05/26 06:02:33;;;;;;;16.90;10.65;;;16.50;1.00;;;;;;5013627;28;20492;-58
2023/05/26 06:04:58;;;;;;;23.92;12.35;;;16.50;1.00;;;;;;5011403;28;20069;-60
2023/05/26 06:07:24;;;;;;;17.27;10.70;;;16.50;1.00;;;;;;5013249;28;20025;-61
2023/05/26 06:09:50;;;;;;;16.73;11.48;;;16.60;99.90;;;;;;5013268;28;20029;-57
2023/05/26 06:12:15;;;;;;;17.45;11.20;;;16.70;99.90;;;;;;5013366;28;20508;-58
2023/05/26 06:14:41;;;;;;;16.33;9.82;;;16.90;1.00;;;;;;5013071;28;20133;-58
2023/05/26 06:17:07;;;;;;;21.08;10.02;;;16.80;99.90;;;;;;5013316;28;20113;-58
2023/05/26 06:19:32;;;;;;;15.43;9.90;;;16.80;1.00;;;;;;5013476;28;20034;-61
2023/05/26 06:21:58;;;;;;;19.17;11.05;;;16.90;99.90;;;;;;5013404;28;20034;-61
2023/05/26 06:24:23;;;;;;;22.33;11.23;;;16.90;1.00;;;;;;5013006;28;20032;-61
2023/05/26 06:26:49;;;;;;;14.07;9.35;;;17.00;1.00;;;;;;5012981;28;20113;-61
2023/05/26 06:29:16;;;;;;;18.85;9.80;;;17.20;99.90;;;;;;5012957;28;20401;-61
2023/05/26 06:31:42;;;;;;;19.60;9.93;;;17.20;1.00;;;;;;5012780;28;20080;-58
2023/05/26 06:34:08;;;;;;;16.27;10.18;;;17.10;99.90;;;;;;5013014;28;20355;-58
2023/05/26 06:36:34;;;;;;;17.77;10.52;;;17.10;99.90;;;;;;5012564;28;20022;-55
2023/05/26 06:39:00;;;;;;;25.50;10.05;;;17.00;99.90;;;;;;5012624;28;20418;-59
2023/05/26 06:41:26;;;;;;;18.85;10.55;;;17.00;1.00;;;;;;5012728;28;20377;-55
2023/05/26 06:43:52;;;;;;;19.35;9.85;;;17.00;80.40;;;;;;5012599;28;20030;-59
2023/05/26 06:46:18;;;;;;;19.55;8.93;;;16.90;1.00;;;;;;5012733;28;20038;-59
2023/05/26 06:48:44;;;;;;;21.25;10.52;;;17.10;1.00;;;;;;5011455;28;20026;-59
2023/05/26 06:51:10;;;;;;;14.52;9.07;;;17.10;1.00;;;;;;5012534;28;20522;-59
2023/05/26 06:53:37;;;;;;;21.80;10.05;;;17.20;1.00;;;;;;5012491;28;20037;-59
2023/05/26 06:56:04;;;;;;;19.30;10.60;;;17.30;99.90;;;;;;5012322;28;20037;-59
2023/05/26 06:58:29;;;;;;;17.20;9.35;;;17.40;99.90;;;;;;5011177;28;20030;-59
2023/05/26 07:01:02;;;;;;;15.77;8.95;;;17.60;99.90;;;;;;5012328;28;20081;-59
2023/05/26 07:03:29;;;;;;;22.83;10.00;;;17.70;99.90;;;;;;5012500;28;20405;-59
2023/05/26 07:05:56;;;;;;;17.88;9.38;;;17.90;99.90;;;;;;5010270;28;20041;-59
2023/05/26 07:08:22;;;;;;;17.85;10.32;;;18.00;1.00;;;;;;5012192;28;20901;-59
2023/05/26 07:10:47;;;;;;;15.82;9.90;;;17.90;1.00;;;;;;5012150;28;20373;-59
2023/05/26 07:13:14;;;;;;;19.63;10.32;;;18.00;1.00;;;;;;5012206;28;20025;-59
2023/05/26 07:15:40;;;;;;;18.88;10.23;;;18.10;1.00;;;;;;5012206;28;20041;-59
2023/05/26 07:18:06;;;;;;;19.27;10.98;;;18.30;1.00;;;;;;5012060;28;20030;-59
2023/05/26 07:20:32;;;;;;;21.75;9.05;;;18.50;42.20;;;;;;5012279;28;20516;-59
2023/05/26 07:22:58;;;;;;;20.25;9.85;;;18.40;95.90;;;;;;5011391;28;20029;-59
2023/05/26 07:25:23;;;;;;;14.80;9.80;;;18.50;1.00;;;;;;5012139;28;20104;-59
2023/05/26 07:27:49;;;;;;;19.38;9.90;;;18.60;1.00;;;;;;5011631;28;20064;-59
2023/05/26 07:30:15;;;;;;;18.38;9.73;;;18.60;99.90;;;;;;5011939;28;20053;-59
2023/05/26 07:32:40;;;;;;;24.13;10.25;;;18.50;99.90;;;;;;5011970;28;20033;-59
2023/05/26 07:35:06;;;;;;;20.45;10.40;;;18.50;99.90;;;;;;5010865;28;20022;-61
2023/05/26 07:37:32;;;;;;;19.90;10.65;;;18.50;99.90;;;;;;5010241;28;20046;-60
2023/05/26 07:39:58;;;;;;;16.10;9.68;;;18.60;51.00;;;;;;5010873;28;20152;-59
2023/05/26 07:42:24;;;;;;;18.17;10.68;;;18.80;99.90;;;;;;5011343;28;20105;-59
2023/05/26 07:44:50;;;;;;;16.42;10.48;;;18.80;1.00;;;;;;5011337;28;20052;-59
2023/05/26 07:47:15;;;;;;;20.38;10.55;;;19.00;99.90;;;;;;5010526;28;20034;-59
2023/05/26 07:49:41;;;;;;;18.45;10.13;;;19.10;1.00;;;;;;5011595;28;20030;-59
2023/05/26 07:52:07;;;;;;;19.35;10.52;;;19.30;99.90;;;;;;5011444;28;20038;-59
2023/05/26 07:54:32;;;;;;;20.27;13.35;;;19.30;99.90;;;;;;5011293;28;20014;-59
2023/05/26 07:56:58;;;;;;;20.98;16.10;;;19.10;46.60;;;;;;5011638;28;20076;-59
2023/05/26 07:59:24;;;;;;;17.80;11.35;;;19.40;99.90;;;;;;5010218;28;20496;-59
2023/05/26 08:01:49;;;;;;;12.85;10.73;;;19.40;1.00;;;;;;5014779;28;20623;-59
2023/05/26 08:04:15;;;;;;;23.45;10.57;;;19.60;99.90;;;;;;5015732;28;20111;-59
2023/05/26 08:06:41;;;;;;;22.13;9.85;;;19.70;38.00;;;;;;5015469;28;20030;-59
2023/05/26 08:09:08;;;;;;;18.13;9.88;;;19.80;99.90;;;;;;5015700;28;20084;-59
2023/05/26 08:11:33;;;;;;;24.73;10.45;;;19.90;1.00;;;;;;5015085;28;20025;-59
2023/05/26 08:13:59;;;;;;;16.73;11.00;;;20.10;99.90;;;;;;5015389;28;20053;-59
2023/05/26 08:16:25;;;;;;;15.07;10.65;;;20.20;78.50;;;;;;5015514;28;20018;-59
2023/05/26 08:18:51;;;;;;;22.10;11.25;;;20.50;99.90;;;;;;5015395;28;20489;-59
2023/05/26 08:21:16;;;;;;;20.98;11.15;;;20.70;1.00;;;;;;5015360;28;20026;-59
2023/05/26 08:23:42;;;;;;;18.75;10.55;;;20.80;1.00;;;;;;5015366;28;20022;-59
2023/05/26 08:26:08;;;;;;;17.95;9.90;;;20.80;99.90;;;;;;5015304;28;20034;-59
2023/05/26 08:28:34;;;;;;;20.30;10.02;;;21.00;99.90;;;;;;5014158;28;20022;-59
2023/05/26 08:31:00;;;;;;;18.48;9.32;;;20.90;99.90;;;;;;5014709;28;20022;-59
2023/05/26 08:33:26;;;;;;;20.50;11.50;;;20.40;99.90;;;;;;5014900;28;20152;-59
2023/05/26 08:35:51;;;;;;;16.77;10.93;;;20.30;1.00;;;;;;5014775;28;20091;-59
2023/05/26 08:38:17;;;;;;;19.17;10.23;;;20.50;1.00;;;;;;5014996;28;20460;-58
2023/05/26 08:40:42;;;;;;;16.55;10.10;;;20.80;99.90;;;;;;5014629;28;20078;-59
2023/05/26 08:43:11;;;;;;;18.33;10.32;;;21.10;1.00;;;;;;5014974;28;20030;-59
2023/05/26 08:45:38;;;;;;;19.85;10.75;;;21.10;1.00;;;;;;5014400;28;20018;-59
2023/05/26 08:48:07;;;;;;;16.70;10.50;;;21.10;1.00;;;;;;5014090;28;20117;-59
2023/05/26 08:50:34;;;;;;;14.23;9.55;;;21.10;99.90;;;;;;5014688;28;20583;-59
2023/05/26 08:53:01;;;;;;;16.77;10.15;;;21.00;1.00;;;;;;5014723;28;20026;-59
2023/05/26 08:55:28;;;;;;;15.20;9.77;;;20.90;99.90;;;;;;5013025;28;20440;-59
2023/05/26 08:57:55;;;;;;;23.67;10.13;;;21.10;99.90;;;;;;5014451;28;20434;-59
2023/05/26 09:00:21;;;;;;;17.10;9.35;;;21.20;99.90;;;;;;5003799;28;20022;-59
2023/05/26 09:02:47;;;;;;;14.20;9.35;;;21.30;1.00;;;;;;5011334;28;20094;-59
2023/05/26 09:05:14;;;;;;;15.30;9.10;;;21.60;99.90;;;;;;5014652;28;20042;-59
2023/05/26 09:07:39;;;;;;;19.85;9.02;;;21.70;1.00;;;;;;5014333;28;20014;-59
2023/05/26 09:10:25;;;;;;;17.35;9.68;;;21.80;1.00;;;;;;5014304;28;20508;-59
2023/05/26 09:13:13;;;;;;;10.50;7.53;;;22.10;91.40;;;;;;5013340;28;20033;-59
2023/05/26 09:15:40;;;;;;;18.83;8.40;;;22.20;99.90;;;;;;5011043;28;20030;-59
2023/05/26 09:18:15;;;;;;;16.77;8.48;;;22.20;99.90;;;;;;5013566;28;20045;-60
2023/05/26 09:20:43;;;;;;;18.98;8.00;;;22.30;99.90;;;;;;5014104;28;20053;-59
2023/05/26 09:23:09;;;;;;;19.80;8.05;;;22.20;99.90;;;;;;5012933;28;20112;-60
2023/05/26 09:25:37;;;;;;;20.98;7.95;;;22.20;99.90;;;;;;5012413;28;20165;-60
2023/05/26 09:28:04;;;;;;;15.35;9.05;;;22.40;99.90;;;;;;5013486;28;20041;-59
2023/05/26 09:30:41;;;;;;;21.38;10.85;;;22.40;99.90;;;;;;5014233;28;20465;-59
2023/05/26 09:33:10;;;;;;;15.48;9.55;;;22.70;99.90;;;;;;5013960;28;20030;-59
2023/05/26 09:35:37;;;;;;;15.70;10.00;;;22.50;99.90;;;;;;5012534;28;20044;-59
2023/05/26 09:38:05;;;;;;;15.75;9.93;;;22.60;99.90;;;;;;5013547;28;20046;-59
2023/05/26 09:40:31;;;;;;;18.27;10.88;;;22.60;99.90;;;;;;5013928;28;20030;-59
2023/05/26 09:42:56;;;;;;;17.33;10.25;;;22.60;99.90;;;;;;5013395;28;20056;-58
2023/05/26 09:45:23;;;;;;;18.95;9.40;;;22.90;99.90;;;;;;5013543;28;20018;-56
2023/05/26 09:47:57;;;;;;;19.25;10.27;;;23.10;99.90;;;;;;5013273;28;20091;-60
2023/05/26 09:50:24;;;;;;;16.90;10.23;;;23.40;99.90;;;;;;5013728;28;20029;-60
2023/05/26 09:52:50;;;;;;;15.73;9.80;;;23.70;99.90;;;;;;5013175;28;20026;-59
2023/05/26 09:55:17;;;;;;;17.40;9.93;;;23.70;99.90;;;;;;5013835;28;20133;-61
2023/05/26 09:57:45;;;;;;;17.42;9.48;;;23.70;83.30;;;;;;5013442;28;20034;-59
2023/05/26 10:00:17;;;;;;;14.50;7.45;;;23.60;96.20;;;;;;5013419;28;20029;-60
2023/05/26 10:02:45;;;;;;;11.32;7.15;;;23.60;71.10;;;;;;5012142;28;20029;-60
2023/05/26 10:05:11;;;;;;;14.90;8.57;;;23.50;55.20;;;;;;5013681;28;20023;-59
2023/05/26 10:07:40;;;;;;;19.98;8.40;;;23.40;19.60;;;;;;5013207;28;20385;-59
2023/05/26 10:10:08;;;;;;;13.40;8.20;;;23.60;1.00;;;;;;5012881;28;20040;-59
2023/05/26 10:12:35;;;;;;;14.10;8.20;;;23.90;16.40;;;;;;5012045;28;20026;-59
2023/05/26 10:15:02;;;;;;;12.98;8.68;;;23.90;1.00;;;;;;5013071;28;20100;-59
2023/05/26 10:17:29;;;;;;;15.95;9.07;;;24.30;1.00;;;;;;5013067;28;20389;-59
2023/05/26 10:19:57;;;;;;;19.48;8.88;;;24.10;1.00;;;;;;5012935;28;20026;-60
2023/05/26 10:22:38;;;;;;;14.88;8.02;;;23.80;1.00;;;;;;5013083;28;20033;-58
2023/05/26 10:25:12;;;;;;;16.75;6.95;;;24.20;1.00;;;;;;4995198;28;20104;-59
2023/05/26 10:28:17;;;;;;;11.25;7.70;;;24.10;1.00;;;;;;4982570;28;20347;-59
2023/05/26 10:30:43;;;;;;;15.18;8.70;;;24.40;1.00;;;;;;4979207;28;20067;-59
2023/05/26 10:33:13;;;;;;;11.85;8.00;;;24.40;1.00;;;;;;4982186;28;20030;-59
2023/05/26 10:35:54;;;;;;;12.25;7.57;;;24.10;1.00;;;;;;4981735;28;20030;-59
2023/05/26 10:38:25;;;;;;;15.85;8.30;;;24.20;1.00;;;;;;4981683;28;22554;-58
2023/05/26 10:40:51;;;;;;;11.50;7.90;;;24.60;1.00;;;;;;4982176;28;20034;-59
2023/05/26 10:43:25;;;;;;;11.90;7.32;;;24.80;1.00;;;;;;4981770;28;20073;-59
2023/05/26 10:46:02;;;;;;;12.65;7.15;;;24.90;1.00;;;;;;4980919;28;20118;-59
2023/05/26 10:48:54;;;;;;;17.48;8.60;;;25.10;1.00;;;;;;5001296;28;20041;-58
2023/05/26 10:51:31;;;;;;;15.38;8.30;;;24.90;1.00;;;;;;4985114;28;20038;-59
2023/05/26 10:53:58;;;;;;;14.20;7.82;;;25.10;1.00;;;;;;4982280;28;20080;-59
2023/05/26 10:56:42;;;;;;;13.13;7.35;;;25.60;1.00;;;;;;4982339;28;20062;-59
2023/05/26 10:59:18;;;;;;;12.18;6.03;;;25.50;1.00;;;;;;4981478;28;20084;-59
2023/05/26 11:01:52;;;;;;;19.92;6.90;;;25.60;1.00;;;;;;4983700;28;20034;-59
2023/05/26 11:04:18;;;;;;;16.67;6.88;;;25.70;1.00;;;;;;4981989;28;20045;-59
2023/05/26 11:06:47;;;;;;;12.88;7.10;;;25.80;1.00;;;;;;4982159;28;20528;-59
2023/05/26 11:09:13;;;;;;;16.70;7.13;;;25.80;1.00;;;;;;4982301;28;20054;-59
2023/05/26 11:11:54;;;;;;;15.63;8.07;;;26.20;1.00;;;;;;4982260;28;20378;-59
2023/05/26 11:14:27;;;;;;;15.95;7.50;;;26.00;1.00;;;;;;4982438;28;20033;-59
2023/05/26 11:16:57;;;;;;;12.85;6.53;;;26.20;1.00;;;;;;4982523;28;20108;-59
2023/05/26 11:19:33;;;;;;;13.52;7.55;;;26.50;1.00;;;;;;4981848;28;20125;-59
2023/05/26 11:22:00;;;;;;;11.18;6.32;;;26.50;1.00;;;;;;4981854;28;20042;-59
2023/05/26 11:24:26;;;;;;;14.07;7.35;;;26.70;1.00;;;;;;4989040;28;20511;-59
2023/05/26 11:26:52;;;;;;;15.25;7.28;;;26.10;99.90;;;;;;5001626;28;20026;-59
2023/05/26 11:29:22;;;;;;;10.80;6.50;;;26.10;1.00;;;;;;5000311;28;20032;-59
2023/05/26 11:31:50;;;;;;;12.43;7.05;;;26.20;99.90;;;;;;5014221;28;20366;-60
2023/05/26 11:34:15;;;;;;;13.52;8.63;;;26.20;99.90;;;;;;4999454;28;20037;-59
2023/05/26 11:36:54;;;;;;;15.68;7.85;;;26.40;99.90;;;;;;4996619;28;20473;-59
2023/05/26 11:39:21;;;;;;;10.50;6.75;;;25.90;99.90;;;;;;4987453;28;20069;-60
2023/05/26 11:41:48;;;;;;;20.10;6.50;;;25.70;99.90;;;;;;5000148;28;20485;-60
2023/05/26 11:44:15;;;;;;;16.08;6.78;;;25.40;99.90;;;;;;4987124;28;20381;-60
2023/05/26 11:46:42;;;;;;;11.55;7.00;;;25.20;99.90;;;;;;4981949;28;20228;-60
2023/05/26 11:49:14;;;;;;;13.57;6.32;;;25.30;99.90;;;;;;4982875;28;20034;-60
2023/05/26 11:51:52;;;;;;;10.90;6.38;;;25.10;1.00;;;;;;4980387;28;20033;-60
2023/05/26 11:54:19;;;;;;;10.60;6.25;;;25.10;1.00;;;;;;4981920;28;20038;-60
2023/05/26 11:56:46;;;;;;;12.07;6.65;;;25.30;99.90;;;;;;4984891;28;20023;-59
2023/05/26 11:59:20;;;;;;;15.23;7.35;;;25.40;99.90;;;;;;4990009;28;20149;-60
2023/05/26 12:01:46;;;;;;;11.50;6.30;;;25.10;99.90;;;;;;4991747;28;20026;-60
2023/05/26 12:04:12;;;;;;;9.98;6.40;;;25.00;99.90;;;;;;4991726;28;20026;-60
2023/05/26 12:06:43;;;;;;;12.30;5.68;;;25.00;99.90;;;;;;4991743;28;20265;-60
2023/05/26 12:09:22;;;;;;;11.10;6.47;;;25.00;99.90;;;;;;4990872;28;20022;-60
2023/05/26 12:11:51;;;;;;;19.13;5.82;;;25.40;99.90;;;;;;4990826;28;20053;-60
2023/05/26 12:14:17;;;;;;;11.18;5.20;;;26.00;99.90;;;;;;4990766;28;20018;-60
2023/05/26 12:16:50;;;;;;;9.95;6.05;;;27.20;99.90;;;;;;4990815;28;20028;-60
2023/05/26 12:19:18;;;;;;;;;;;28.40;99.90;;;;;;4991105;28;20026;-60
2023/05/26 12:21:44;;;;;;;12.18;5.25;;;29.30;99.90;;;;;;4990766;28;19906;-60
2023/05/26 12:24:10;;;;;;;10.55;5.15;;;29.80;99.90;;;;;;4990701;28;20027;-60
2023/05/26 12:26:36;;;;;;;12.05;5.40;;;29.50;99.90;;;;;;4991000;28;20022;-60
2023/05/26 12:29:06;;;;;;;17.30;5.60;;;28.60;99.90;;;;;;4990426;28;20037;-60
2023/05/26 12:31:46;;;;;;;13.82;6.13;;;27.90;99.90;;;;;;4990926;28;20027;-60
2023/05/26 12:34:19;;;;;;;11.57;5.35;;;27.10;99.90;;;;;;4990966;28;20032;-60
2023/05/26 12:36:45;;;;;;;9.38;5.30;;;26.20;99.90;;;;;;4990395;28;20054;-60
2023/05/26 12:39:12;;;;;;;16.20;7.18;;;25.60;99.90;;;;;;4990722;28;20501;-60
2023/05/26 12:41:40;;;;;;;10.43;5.82;;;25.30;99.90;;;;;;4990376;28;20077;-60